America, Illinois
Current Conditions -  °F | °C
As of 2:55 AM on Wednesday 26 Nov 2014 (Local Time) from KCIR Reporting Station
Clear Clear  
Wind Chill: 21°   Ceiling: Unl
Heat Index: 27°   Visibility: 7mi
Dew Point: 24°   Wind: 6mph
Humidity: 90%   Direction: 60°ENE
Pressure: 30.15"   Gusts: NA
Location:  37.1575°N, 89.1781°W
Report Text: KCIR 260855Z AUTO 06005KT 7SM CLR M03/M04 A3015 RMK AO2 T10271042
Loading
Personal Weather Stations






























Interactive Weather Map New forecast layout! Learn more

10-Day Weather Forecast

Advertisements
Track Severe Weather on mobile